sensor_id;sensor_type;location;lat;lon;timestamp;temperature;humidity
21580;DHT22;10951;59.656;9.666;2024-02-15T00:00:20;-4.40;99.90
21580;DHT22;10951;59.656;9.666;2024-02-15T00:02:47;-4.40;99.90
21580;DHT22;10951;59.656;9.666;2024-02-15T00:05:14;-4.40;99.90
21580;DHT22;10951;59.656;9.666;2024-02-15T00:07:43;-4.40;99.90
21580;DHT22;10951;59.656;9.666;2024-02-15T00:10:11;-4.40;99.90
21580;DHT22;10951;59.656;9.666;2024-02-15T00:12:38;-4.40;99.90
21580;DHT22;10951;59.656;9.666;2024-02-15T00:15:05;-4.40;99.90
21580;DHT22;10951;59.656;9.666;2024-02-15T00:17:34;-4.40;99.90
21580;DHT22;10951;59.656;9.666;2024-02-15T00:20:03;-4.30;99.90
21580;DHT22;10951;59.656;9.666;2024-02-15T00:22:39;-4.30;99.90
21580;DHT22;10951;59.656;9.666;2024-02-15T00:25:09;-4.20;99.90
21580;DHT22;10951;59.656;9.666;2024-02-15T00:27:37;-4.20;99.90
21580;DHT22;10951;59.656;9.666;2024-02-15T00:30:05;-4.20;99.90
21580;DHT22;10951;59.656;9.666;2024-02-15T00:32:34;-4.20;99.90
21580;DHT22;10951;59.656;9.666;2024-02-15T00:35:04;-4.20;99.90
21580;DHT22;10951;59.656;9.666;2024-02-15T00:37:37;-4.20;99.90
21580;DHT22;10951;59.656;9.666;2024-02-15T00:40:05;-4.20;99.90
21580;DHT22;10951;59.656;9.666;2024-02-15T00:42:32;-4.20;99.90
21580;DHT22;10951;59.656;9.666;2024-02-15T00:44:59;-4.10;99.90
21580;DHT22;10951;59.656;9.666;2024-02-15T00:47:27;-4.00;99.90
21580;DHT22;10951;59.656;9.666;2024-02-15T00:49:55;-3.90;99.90
21580;DHT22;10951;59.656;9.666;2024-02-15T00:52:23;-3.80;99.90
21580;DHT22;10951;59.656;9.666;2024-02-15T00:54:50;-3.90;99.90
21580;DHT22;10951;59.656;9.666;2024-02-15T00:57:17;-4.00;99.90
21580;DHT22;10951;59.656;9.666;2024-02-15T00:59:44;-3.90;99.90
21580;DHT22;10951;59.656;9.666;2024-02-15T01:02:11;-4.00;99.90
21580;DHT22;10951;59.656;9.666;2024-02-15T01:04:39;-4.00;99.90
21580;DHT22;10951;59.656;9.666;2024-02-15T01:07:06;-4.00;99.90
21580;DHT22;10951;59.656;9.666;2024-02-15T01:09:35;-3.90;99.90
21580;DHT22;10951;59.656;9.666;2024-02-15T01:12:03;-3.90;99.90
21580;DHT22;10951;59.656;9.666;2024-02-15T01:14:33;-3.90;99.90
21580;DHT22;10951;59.656;9.666;2024-02-15T01:17:01;-4.00;99.90
21580;DHT22;10951;59.656;9.666;2024-02-15T01:19:28;-4.10;99.90
21580;DHT22;10951;59.656;9.666;2024-02-15T01:21:56;-4.10;99.90
21580;DHT22;10951;59.656;9.666;2024-02-15T01:24:25;-4.00;99.90
21580;DHT22;10951;59.656;9.666;2024-02-15T01:26:53;-4.10;99.90
21580;DHT22;10951;59.656;9.666;2024-02-15T01:29:21;-4.00;99.90
21580;DHT22;10951;59.656;9.666;2024-02-15T01:31:48;-4.00;99.90
21580;DHT22;10951;59.656;9.666;2024-02-15T01:34:15;-4.00;99.90
21580;DHT22;10951;59.656;9.666;2024-02-15T01:36:43;-3.90;99.90
21580;DHT22;10951;59.656;9.666;2024-02-15T01:39:10;-3.90;99.90
21580;DHT22;10951;59.656;9.666;2024-02-15T01:41:40;-3.90;99.90
21580;DHT22;10951;59.656;9.666;2024-02-15T01:44:07;-3.80;99.90
21580;DHT22;10951;59.656;9.666;2024-02-15T01:46:34;-3.90;99.90
21580;DHT22;10951;59.656;9.666;2024-02-15T01:49:01;-3.90;99.90
21580;DHT22;10951;59.656;9.666;2024-02-15T01:51:29;-3.90;99.90
21580;DHT22;10951;59.656;9.666;2024-02-15T01:53:56;-3.90;99.90
21580;DHT22;10951;59.656;9.666;2024-02-15T01:56:24;-3.90;99.90
21580;DHT22;10951;59.656;9.666;2024-02-15T01:58:52;-3.90;99.90
21580;DHT22;10951;59.656;9.666;2024-02-15T02:01:20;-3.90;99.90
21580;DHT22;10951;59.656;9.666;2024-02-15T02:03:48;-3.80;99.90
21580;DHT22;10951;59.656;9.666;2024-02-15T02:06:16;-3.70;99.90
21580;DHT22;10951;59.656;9.666;2024-02-15T02:08:43;-3.60;99.90
21580;DHT22;10951;59.656;9.666;2024-02-15T02:11:10;-3.50;99.90
21580;DHT22;10951;59.656;9.666;2024-02-15T02:13:37;-3.40;99.90
21580;DHT22;10951;59.656;9.666;2024-02-15T02:16:04;-3.50;99.90
21580;DHT22;10951;59.656;9.666;2024-02-15T02:18:50;-3.50;99.90
21580;DHT22;10951;59.656;9.666;2024-02-15T02:21:18;-3.60;99.90
21580;DHT22;10951;59.656;9.666;2024-02-15T02:23:46;-3.60;99.90
21580;DHT22;10951;59.656;9.666;2024-02-15T02:26:16;-3.70;99.90
21580;DHT22;10951;59.656;9.666;2024-02-15T02:28:43;-3.70;99.90
21580;DHT22;10951;59.656;9.666;2024-02-15T02:31:11;-3.80;99.90
21580;DHT22;10951;59.656;9.666;2024-02-15T02:33:39;-3.80;99.90
21580;DHT22;10951;59.656;9.666;2024-02-15T02:36:08;-3.80;99.90
21580;DHT22;10951;59.656;9.666;2024-02-15T02:38:37;-3.90;99.90
21580;DHT22;10951;59.656;9.666;2024-02-15T02:41:05;-3.90;99.90
21580;DHT22;10951;59.656;9.666;2024-02-15T02:43:32;-3.90;99.90
21580;DHT22;10951;59.656;9.666;2024-02-15T02:45:59;-4.00;99.90
21580;DHT22;10951;59.656;9.666;2024-02-15T02:48:26;-3.90;99.90
21580;DHT22;10951;59.656;9.666;2024-02-15T02:50:54;-3.90;99.90
21580;DHT22;10951;59.656;9.666;2024-02-15T02:53:21;-3.80;99.90
21580;DHT22;10951;59.656;9.666;2024-02-15T02:55:49;-3.90;99.90
21580;DHT22;10951;59.656;9.666;2024-02-15T02:58:16;-3.80;99.90
21580;DHT22;10951;59.656;9.666;2024-02-15T03:00:44;-3.80;99.90
21580;DHT22;10951;59.656;9.666;2024-02-15T03:03:13;-3.80;99.90
21580;DHT22;10951;59.656;9.666;2024-02-15T03:05:40;-3.80;99.90
21580;DHT22;10951;59.656;9.666;2024-02-15T03:08:09;-3.80;99.90
21580;DHT22;10951;59.656;9.666;2024-02-15T03:10:36;-3.90;99.90
21580;DHT22;10951;59.656;9.666;2024-02-15T03:13:03;-4.00;99.90
21580;DHT22;10951;59.656;9.666;2024-02-15T03:15:31;-4.10;99.90
21580;DHT22;10951;59.656;9.666;2024-02-15T03:18:00;-4.10;99.90
21580;DHT22;10951;59.656;9.666;2024-02-15T03:20:27;-4.20;99.90
21580;DHT22;10951;59.656;9.666;2024-02-15T03:23:00;-4.20;99.90
21580;DHT22;10951;59.656;9.666;2024-02-15T03:25:28;-4.10;99.90
21580;DHT22;10951;59.656;9.666;2024-02-15T03:27:59;-4.10;99.90
21580;DHT22;10951;59.656;9.666;2024-02-15T03:30:31;-4.10;99.90
21580;DHT22;10951;59.656;9.666;2024-02-15T03:33:00;-4.10;99.90
21580;DHT22;10951;59.656;9.666;2024-02-15T03:35:28;-4.10;99.90
21580;DHT22;10951;59.656;9.666;2024-02-15T03:37:58;-4.10;99.90
21580;DHT22;10951;59.656;9.666;2024-02-15T03:40:25;-4.10;99.90
21580;DHT22;10951;59.656;9.666;2024-02-15T03:42:54;-4.10;99.90
21580;DHT22;10951;59.656;9.666;2024-02-15T03:45:21;-4.20;99.90
21580;DHT22;10951;59.656;9.666;2024-02-15T03:47:54;-4.20;99.90
21580;DHT22;10951;59.656;9.666;2024-02-15T03:50:23;-4.20;99.90
21580;DHT22;10951;59.656;9.666;2024-02-15T03:52:50;-4.20;99.90
21580;DHT22;10951;59.656;9.666;2024-02-15T03:55:18;-4.30;99.90
21580;DHT22;10951;59.656;9.666;2024-02-15T03:57:45;-4.40;99.90
21580;DHT22;10951;59.656;9.666;2024-02-15T04:00:15;-4.40;99.90
21580;DHT22;10951;59.656;9.666;2024-02-15T04:02:43;-4.40;99.90
21580;DHT22;10951;59.656;9.666;2024-02-15T04:05:10;-4.40;99.90
21580;DHT22;10951;59.656;9.666;2024-02-15T04:07:39;-4.40;99.90
21580;DHT22;10951;59.656;9.666;2024-02-15T04:10:06;-4.40;99.90
21580;DHT22;10951;59.656;9.666;2024-02-15T04:12:36;-4.50;99.90
21580;DHT22;10951;59.656;9.666;2024-02-15T04:15:04;-4.40;99.90
21580;DHT22;10951;59.656;9.666;2024-02-15T04:17:39;-4.40;99.90
21580;DHT22;10951;59.656;9.666;2024-02-15T04:20:09;-4.40;99.90
21580;DHT22;10951;59.656;9.666;2024-02-15T04:22:36;-4.40;99.90
21580;DHT22;10951;59.656;9.666;2024-02-15T04:25:09;-4.40;99.90
21580;DHT22;10951;59.656;9.666;2024-02-15T04:27:39;-4.50;99.90
21580;DHT22;10951;59.656;9.666;2024-02-15T04:30:07;-4.50;99.90
21580;DHT22;10951;59.656;9.666;2024-02-15T04:32:35;-4.50;99.90
21580;DHT22;10951;59.656;9.666;2024-02-15T04:35:04;-4.60;99.90
21580;DHT22;10951;59.656;9.666;2024-02-15T04:37:35;-4.60;99.90
21580;DHT22;10951;59.656;9.666;2024-02-15T04:40:05;-4.60;99.90
21580;DHT22;10951;59.656;9.666;2024-02-15T04:42:38;-4.60;99.90
21580;DHT22;10951;59.656;9.666;2024-02-15T04:45:12;-4.60;99.90
21580;DHT22;10951;59.656;9.666;2024-02-15T04:47:42;-4.60;99.90
21580;DHT22;10951;59.656;9.666;2024-02-15T04:50:13;-4.60;99.90
21580;DHT22;10951;59.656;9.666;2024-02-15T04:52:42;-4.60;99.90
21580;DHT22;10951;59.656;9.666;2024-02-15T04:55:12;-4.70;99.90
21580;DHT22;10951;59.656;9.666;2024-02-15T04:57:39;-4.70;99.90
21580;DHT22;10951;59.656;9.666;2024-02-15T05:00:07;-4.60;99.90
21580;DHT22;10951;59.656;9.666;2024-02-15T05:02:38;-4.60;99.90
21580;DHT22;10951;59.656;9.666;2024-02-15T05:05:10;-4.60;99.90
21580;DHT22;10951;59.656;9.666;2024-02-15T05:07:41;-4.70;99.90
21580;DHT22;10951;59.656;9.666;2024-02-15T05:10:10;-4.70;99.90
21580;DHT22;10951;59.656;9.666;2024-02-15T05:12:37;-4.70;99.90
21580;DHT22;10951;59.656;9.666;2024-02-15T05:15:06;-4.70;99.90
21580;DHT22;10951;59.656;9.666;2024-02-15T05:17:40;-4.60;99.90
21580;DHT22;10951;59.656;9.666;2024-02-15T05:20:10;-4.60;99.90
21580;DHT22;10951;59.656;9.666;2024-02-15T05:22:39;-4.70;99.90
21580;DHT22;10951;59.656;9.666;2024-02-15T05:25:09;-4.70;99.90
21580;DHT22;10951;59.656;9.666;2024-02-15T05:27:36;-4.70;99.90
21580;DHT22;10951;59.656;9.666;2024-02-15T05:30:04;-4.70;99.90
21580;DHT22;10951;59.656;9.666;2024-02-15T05:32:35;-4.80;99.90
21580;DHT22;10951;59.656;9.666;2024-02-15T05:35:10;-4.80;99.90
21580;DHT22;10951;59.656;9.666;2024-02-15T05:37:40;-4.80;99.90
21580;DHT22;10951;59.656;9.666;2024-02-15T05:40:07;-4.80;99.90
21580;DHT22;10951;59.656;9.666;2024-02-15T05:42:42;-4.80;99.90
21580;DHT22;10951;59.656;9.666;2024-02-15T05:47:55;-4.80;99.90
21580;DHT22;10951;59.656;9.666;2024-02-15T05:50:23;-4.80;99.90
21580;DHT22;10951;59.656;9.666;2024-02-15T05:52:51;-4.80;99.90
21580;DHT22;10951;59.656;9.666;2024-02-15T05:55:20;-4.80;99.90
21580;DHT22;10951;59.656;9.666;2024-02-15T05:57:47;-4.70;99.90
21580;DHT22;10951;59.656;9.666;2024-02-15T06:00:15;-4.70;99.90
21580;DHT22;10951;59.656;9.666;2024-02-15T06:02:49;-4.70;99.90
21580;DHT22;10951;59.656;9.666;2024-02-15T06:05:19;-4.70;99.90
21580;DHT22;10951;59.656;9.666;2024-02-15T06:07:47;-4.70;99.90
21580;DHT22;10951;59.656;9.666;2024-02-15T06:10:15;-4.70;99.90
21580;DHT22;10951;59.656;9.666;2024-02-15T06:12:43;-4.70;99.90
21580;DHT22;10951;59.656;9.666;2024-02-15T06:15:10;-4.80;99.90
21580;DHT22;10951;59.656;9.666;2024-02-15T06:17:45;-4.80;99.90
21580;DHT22;10951;59.656;9.666;2024-02-15T06:20:14;-4.80;99.90
21580;DHT22;10951;59.656;9.666;2024-02-15T06:22:41;-4.80;99.90
21580;DHT22;10951;59.656;9.666;2024-02-15T06:25:09;-4.90;99.90
21580;DHT22;10951;59.656;9.666;2024-02-15T06:27:41;-4.80;99.90
21580;DHT22;10951;59.656;9.666;2024-02-15T06:30:11;-4.90;99.90
21580;DHT22;10951;59.656;9.666;2024-02-15T06:32:57;-4.90;99.90
21580;DHT22;10951;59.656;9.666;2024-02-15T06:35:43;-4.90;99.90
21580;DHT22;10951;59.656;9.666;2024-02-15T06:38:29;-4.90;99.90
21580;DHT22;10951;59.656;9.666;2024-02-15T06:41:14;-5.00;99.90
21580;DHT22;10951;59.656;9.666;2024-02-15T06:43:43;-5.00;99.90
21580;DHT22;10951;59.656;9.666;2024-02-15T06:46:10;-5.00;99.90
21580;DHT22;10951;59.656;9.666;2024-02-15T06:48:37;-5.00;99.90
21580;DHT22;10951;59.656;9.666;2024-02-15T06:51:05;-5.00;99.90
21580;DHT22;10951;59.656;9.666;2024-02-15T06:53:34;-5.00;99.90
21580;DHT22;10951;59.656;9.666;2024-02-15T06:56:02;-5.10;99.90
21580;DHT22;10951;59.656;9.666;2024-02-15T06:58:29;-5.10;99.90
21580;DHT22;10951;59.656;9.666;2024-02-15T07:00:56;-5.10;99.90
21580;DHT22;10951;59.656;9.666;2024-02-15T07:03:24;-5.10;99.90
21580;DHT22;10951;59.656;9.666;2024-02-15T07:05:51;-5.10;99.90
21580;DHT22;10951;59.656;9.666;2024-02-15T07:08:18;-5.10;99.90
21580;DHT22;10951;59.656;9.666;2024-02-15T07:10:45;-5.20;99.90
21580;DHT22;10951;59.656;9.666;2024-02-15T07:13:12;-5.30;99.90
21580;DHT22;10951;59.656;9.666;2024-02-15T07:15:39;-5.40;99.90
21580;DHT22;10951;59.656;9.666;2024-02-15T07:18:07;-5.40;99.90
21580;DHT22;10951;59.656;9.666;2024-02-15T07:20:34;-5.40;99.90
21580;DHT22;10951;59.656;9.666;2024-02-15T07:23:02;-5.40;99.90
21580;DHT22;10951;59.656;9.666;2024-02-15T07:25:29;-5.40;99.90
21580;DHT22;10951;59.656;9.666;2024-02-15T07:27:56;-5.40;99.90
21580;DHT22;10951;59.656;9.666;2024-02-15T07:30:23;-5.40;99.90
21580;DHT22;10951;59.656;9.666;2024-02-15T07:32:52;-5.50;99.90
21580;DHT22;10951;59.656;9.666;2024-02-15T07:35:19;-5.50;99.90
21580;DHT22;10951;59.656;9.666;2024-02-15T07:37:53;-5.40;99.90
21580;DHT22;10951;59.656;9.666;2024-02-15T07:40:25;-5.40;99.90
21580;DHT22;10951;59.656;9.666;2024-02-15T07:42:57;-5.40;99.90
21580;DHT22;10951;59.656;9.666;2024-02-15T07:45:25;-5.30;99.90
21580;DHT22;10951;59.656;9.666;2024-02-15T07:47:52;-5.30;99.90
21580;DHT22;10951;59.656;9.666;2024-02-15T07:50:20;-5.30;99.90
21580;DHT22;10951;59.656;9.666;2024-02-15T07:52:50;-5.30;99.90
21580;DHT22;10951;59.656;9.666;2024-02-15T07:55:18;-5.20;99.90
21580;DHT22;10951;59.656;9.666;2024-02-15T07:57:45;-5.20;99.90
21580;DHT22;10951;59.656;9.666;2024-02-15T08:00:15;-5.10;99.90
21580;DHT22;10951;59.656;9.666;2024-02-15T08:02:43;-5.00;99.90
21580;DHT22;10951;59.656;9.666;2024-02-15T08:05:12;-5.00;99.90
21580;DHT22;10951;59.656;9.666;2024-02-15T08:07:44;-5.10;99.90
21580;DHT22;10951;59.656;9.666;2024-02-15T08:10:12;-5.10;99.90
21580;DHT22;10951;59.656;9.666;2024-02-15T08:12:48;-5.10;99.90
21580;DHT22;10951;59.656;9.666;2024-02-15T08:15:19;-5.10;99.90
21580;DHT22;10951;59.656;9.666;2024-02-15T08:17:46;-5.10;99.90
21580;DHT22;10951;59.656;9.666;2024-02-15T08:20:14;-5.00;99.90
21580;DHT22;10951;59.656;9.666;2024-02-15T08:22:42;-5.00;99.90
21580;DHT22;10951;59.656;9.666;2024-02-15T08:25:11;-5.00;99.90
21580;DHT22;10951;59.656;9.666;2024-02-15T08:27:40;-4.90;99.90
21580;DHT22;10951;59.656;9.666;2024-02-15T08:30:15;-4.90;99.90
21580;DHT22;10951;59.656;9.666;2024-02-15T08:32:43;-4.90;99.90
21580;DHT22;10951;59.656;9.666;2024-02-15T08:35:13;-4.90;99.90
21580;DHT22;10951;59.656;9.666;2024-02-15T08:37:41;-4.90;99.90
21580;DHT22;10951;59.656;9.666;2024-02-15T08:40:09;-4.80;99.90
21580;DHT22;10951;59.656;9.666;2024-02-15T08:42:42;-4.80;99.90
21580;DHT22;10951;59.656;9.666;2024-02-15T08:45:10;-4.90;99.90
21580;DHT22;10951;59.656;9.666;2024-02-15T08:47:41;-4.90;99.90
21580;DHT22;10951;59.656;9.666;2024-02-15T08:50:12;-4.80;99.90
21580;DHT22;10951;59.656;9.666;2024-02-15T08:52:39;-4.70;99.90
21580;DHT22;10951;59.656;9.666;2024-02-15T08:55:08;-4.60;99.90
21580;DHT22;10951;59.656;9.666;2024-02-15T08:57:37;-4.50;99.90
21580;DHT22;10951;59.656;9.666;2024-02-15T09:00:05;-4.50;99.90
21580;DHT22;10951;59.656;9.666;2024-02-15T09:02:44;-4.50;99.90
21580;DHT22;10951;59.656;9.666;2024-02-15T09:05:13;-4.50;99.90
21580;DHT22;10951;59.656;9.666;2024-02-15T09:07:45;-4.50;99.90
21580;DHT22;10951;59.656;9.666;2024-02-15T09:10:15;-4.50;99.90
21580;DHT22;10951;59.656;9.666;2024-02-15T09:12:45;-4.40;99.90
21580;DHT22;10951;59.656;9.666;2024-02-15T09:15:16;-4.30;99.90
21580;DHT22;10951;59.656;9.666;2024-02-15T09:17:45;-4.30;99.90
21580;DHT22;10951;59.656;9.666;2024-02-15T09:20:15;-4.30;99.90
21580;DHT22;10951;59.656;9.666;2024-02-15T09:22:50;-4.30;99.90
21580;DHT22;10951;59.656;9.666;2024-02-15T09:25:18;-4.20;99.90
21580;DHT22;10951;59.656;9.666;2024-02-15T09:27:45;-4.10;99.90
21580;DHT22;10951;59.656;9.666;2024-02-15T09:30:18;-4.10;99.90
21580;DHT22;10951;59.656;9.666;2024-02-15T09:32:45;-4.10;99.90
21580;DHT22;10951;59.656;9.666;2024-02-15T09:35:13;-3.90;99.90
21580;DHT22;10951;59.656;9.666;2024-02-15T09:37:46;-3.80;99.90
21580;DHT22;10951;59.656;9.666;2024-02-15T09:40:17;-3.80;99.90
21580;DHT22;10951;59.656;9.666;2024-02-15T09:42:46;-3.70;99.90
21580;DHT22;10951;59.656;9.666;2024-02-15T09:45:13;-3.80;99.90
21580;DHT22;10951;59.656;9.666;2024-02-15T09:47:47;-3.80;99.90
21580;DHT22;10951;59.656;9.666;2024-02-15T09:50:18;-3.80;99.90
21580;DHT22;10951;59.656;9.666;2024-02-15T09:52:48;-3.80;99.90
21580;DHT22;10951;59.656;9.666;2024-02-15T09:55:18;-3.90;99.90
21580;DHT22;10951;59.656;9.666;2024-02-15T09:57:46;-3.90;99.90
21580;DHT22;10951;59.656;9.666;2024-02-15T10:00:16;-3.90;99.90
21580;DHT22;10951;59.656;9.666;2024-02-15T10:02:51;-3.90;99.90
21580;DHT22;10951;59.656;9.666;2024-02-15T10:05:23;-3.90;99.90
21580;DHT22;10951;59.656;9.666;2024-02-15T10:07:51;-3.80;99.90
21580;DHT22;10951;59.656;9.666;2024-02-15T10:10:25;-3.80;99.90
21580;DHT22;10951;59.656;9.666;2024-02-15T10:12:55;-3.70;99.90
21580;DHT22;10951;59.656;9.666;2024-02-15T10:15:30;-3.70;99.90
21580;DHT22;10951;59.656;9.666;2024-02-15T10:18:02;-3.70;99.90
21580;DHT22;10951;59.656;9.666;2024-02-15T10:20:30;-3.70;99.90
21580;DHT22;10951;59.656;9.666;2024-02-15T10:25:27;-3.60;99.90
21580;DHT22;10951;59.656;9.666;2024-02-15T10:30:38;-3.60;99.90
21580;DHT22;10951;59.656;9.666;2024-02-15T10:33:06;-3.60;99.90
21580;DHT22;10951;59.656;9.666;2024-02-15T10:35:35;-3.50;99.90
21580;DHT22;10951;59.656;9.666;2024-02-15T10:38:09;-3.40;99.90
21580;DHT22;10951;59.656;9.666;2024-02-15T10:40:37;-3.30;99.90
21580;DHT22;10951;59.656;9.666;2024-02-15T10:43:05;-3.20;99.90
21580;DHT22;10951;59.656;9.666;2024-02-15T10:45:34;-3.10;99.90
21580;DHT22;10951;59.656;9.666;2024-02-15T10:48:07;-3.10;99.90
21580;DHT22;10951;59.656;9.666;2024-02-15T10:50:35;-3.10;99.90
21580;DHT22;10951;59.656;9.666;2024-02-15T10:53:13;-3.20;99.90
21580;DHT22;10951;59.656;9.666;2024-02-15T10:55:56;-3.20;99.90
21580;DHT22;10951;59.656;9.666;2024-02-15T10:58:28;-3.30;99.90
21580;DHT22;10951;59.656;9.666;2024-02-15T11:00:59;-3.40;99.90
21580;DHT22;10951;59.656;9.666;2024-02-15T11:03:35;-3.50;99.90
21580;DHT22;10951;59.656;9.666;2024-02-15T11:06:05;-3.60;99.90
21580;DHT22;10951;59.656;9.666;2024-02-15T11:08:34;-3.60;99.90
21580;DHT22;10951;59.656;9.666;2024-02-15T11:11:02;-3.50;99.90
21580;DHT22;10951;59.656;9.666;2024-02-15T11:13:31;-3.50;99.90
21580;DHT22;10951;59.656;9.666;2024-02-15T11:16:00;-3.50;99.90
21580;DHT22;10951;59.656;9.666;2024-02-15T11:18:44;-3.60;99.90
21580;DHT22;10951;59.656;9.666;2024-02-15T11:21:13;-3.60;99.90
21580;DHT22;10951;59.656;9.666;2024-02-15T11:23:40;-3.60;99.90
21580;DHT22;10951;59.656;9.666;2024-02-15T11:26:10;-3.50;99.90
21580;DHT22;10951;59.656;9.666;2024-02-15T11:28:37;-3.50;99.90
21580;DHT22;10951;59.656;9.666;2024-02-15T11:31:09;-3.30;99.90
21580;DHT22;10951;59.656;9.666;2024-02-15T11:33:36;-3.30;99.90
21580;DHT22;10951;59.656;9.666;2024-02-15T11:36:10;-3.30;99.90
21580;DHT22;10951;59.656;9.666;2024-02-15T11:38:39;-3.30;99.90
21580;DHT22;10951;59.656;9.666;2024-02-15T11:41:11;-3.20;99.90
21580;DHT22;10951;59.656;9.666;2024-02-15T11:43:48;-3.20;99.90
21580;DHT22;10951;59.656;9.666;2024-02-15T11:46:27;-3.30;99.90
21580;DHT22;10951;59.656;9.666;2024-02-15T11:48:59;-3.20;99.90
21580;DHT22;10951;59.656;9.666;2024-02-15T11:51:30;-3.20;99.90
21580;DHT22;10951;59.656;9.666;2024-02-15T11:54:08;-3.20;99.90
21580;DHT22;10951;59.656;9.666;2024-02-15T11:59:16;-3.00;99.90
21580;DHT22;10951;59.656;9.666;2024-02-15T12:01:57;-3.10;99.90
21580;DHT22;10951;59.656;9.666;2024-02-15T12:04:46;-3.20;99.90
21580;DHT22;10951;59.656;9.666;2024-02-15T12:07:32;-3.20;99.90
21580;DHT22;10951;59.656;9.666;2024-02-15T12:10:19;-3.20;99.90
21580;DHT22;10951;59.656;9.666;2024-02-15T12:13:05;-3.10;99.90
21580;DHT22;10951;59.656;9.666;2024-02-15T12:15:59;-3.10;99.90
21580;DHT22;10951;59.656;9.666;2024-02-15T12:18:45;-3.20;99.90
21580;DHT22;10951;59.656;9.666;2024-02-15T12:21:22;-3.30;99.90
21580;DHT22;10951;59.656;9.666;2024-02-15T12:23:51;-3.30;99.90
21580;DHT22;10951;59.656;9.666;2024-02-15T12:26:20;-3.30;99.90
21580;DHT22;10951;59.656;9.666;2024-02-15T12:28:51;-3.20;99.90
21580;DHT22;10951;59.656;9.666;2024-02-15T12:31:23;-3.20;99.90
21580;DHT22;10951;59.656;9.666;2024-02-15T12:34:01;-3.20;99.90
21580;DHT22;10951;59.656;9.666;2024-02-15T12:36:28;-3.30;99.90
21580;DHT22;10951;59.656;9.666;2024-02-15T12:39:03;-3.30;99.90
21580;DHT22;10951;59.656;9.666;2024-02-15T12:41:41;-3.30;99.90
21580;DHT22;10951;59.656;9.666;2024-02-15T12:44:17;-3.30;99.90
21580;DHT22;10951;59.656;9.666;2024-02-15T12:46:53;-3.20;99.90
21580;DHT22;10951;59.656;9.666;2024-02-15T12:51:52;-3.20;99.90
21580;DHT22;10951;59.656;9.666;2024-02-15T12:54:20;-3.20;99.90
21580;DHT22;10951;59.656;9.666;2024-02-15T12:56:50;-3.10;99.90
21580;DHT22;10951;59.656;9.666;2024-02-15T12:59:20;-3.10;99.90
21580;DHT22;10951;59.656;9.666;2024-02-15T13:01:48;-3.00;99.90
21580;DHT22;10951;59.656;9.666;2024-02-15T13:04:26;-3.00;99.90
21580;DHT22;10951;59.656;9.666;2024-02-15T13:06:53;-3.00;99.90
21580;DHT22;10951;59.656;9.666;2024-02-15T13:09:21;-3.00;99.90
21580;DHT22;10951;59.656;9.666;2024-02-15T13:11:50;-3.10;99.90
21580;DHT22;10951;59.656;9.666;2024-02-15T13:14:17;-3.10;99.90
21580;DHT22;10951;59.656;9.666;2024-02-15T13:16:44;-3.10;99.90
21580;DHT22;10951;59.656;9.666;2024-02-15T13:19:13;-3.00;99.90
21580;DHT22;10951;59.656;9.666;2024-02-15T13:21:41;-2.90;99.90
21580;DHT22;10951;59.656;9.666;2024-02-15T13:24:08;-2.90;99.90
21580;DHT22;10951;59.656;9.666;2024-02-15T13:26:38;-2.90;99.90
21580;DHT22;10951;59.656;9.666;2024-02-15T13:29:07;-2.90;99.90
21580;DHT22;10951;59.656;9.666;2024-02-15T13:31:34;-2.90;99.90
21580;DHT22;10951;59.656;9.666;2024-02-15T13:34:01;-3.00;99.90
21580;DHT22;10951;59.656;9.666;2024-02-15T13:36:29;-3.10;99.90
21580;DHT22;10951;59.656;9.666;2024-02-15T13:38:56;-3.10;99.90
21580;DHT22;10951;59.656;9.666;2024-02-15T13:41:24;-3.10;99.90
21580;DHT22;10951;59.656;9.666;2024-02-15T13:43:51;-3.00;99.90
21580;DHT22;10951;59.656;9.666;2024-02-15T13:46:18;-3.00;99.90
21580;DHT22;10951;59.656;9.666;2024-02-15T13:48:47;-3.10;99.90
21580;DHT22;10951;59.656;9.666;2024-02-15T13:51:14;-3.10;99.90
21580;DHT22;10951;59.656;9.666;2024-02-15T13:53:41;-3.10;99.90
21580;DHT22;10951;59.656;9.666;2024-02-15T13:56:10;-3.10;99.90
21580;DHT22;10951;59.656;9.666;2024-02-15T13:58:37;-3.10;99.90
21580;DHT22;10951;59.656;9.666;2024-02-15T14:01:04;-3.10;99.90
21580;DHT22;10951;59.656;9.666;2024-02-15T14:03:31;-3.10;99.90
21580;DHT22;10951;59.656;9.666;2024-02-15T14:06:00;-3.10;99.90
21580;DHT22;10951;59.656;9.666;2024-02-15T14:08:30;-3.10;99.90
21580;DHT22;10951;59.656;9.666;2024-02-15T14:10:57;-3.10;99.90
21580;DHT22;10951;59.656;9.666;2024-02-15T14:13:25;-3.10;99.90
21580;DHT22;10951;59.656;9.666;2024-02-15T14:15:52;-3.10;99.90
21580;DHT22;10951;59.656;9.666;2024-02-15T14:18:19;-3.10;99.90
21580;DHT22;10951;59.656;9.666;2024-02-15T14:20:47;-3.10;99.90
21580;DHT22;10951;59.656;9.666;2024-02-15T14:23:14;-3.00;99.90
21580;DHT22;10951;59.656;9.666;2024-02-15T14:25:43;-3.00;99.90
21580;DHT22;10951;59.656;9.666;2024-02-15T14:28:12;-3.10;99.90
21580;DHT22;10951;59.656;9.666;2024-02-15T14:30:41;-3.10;99.90
21580;DHT22;10951;59.656;9.666;2024-02-15T14:33:27;-3.20;99.90
21580;DHT22;10951;59.656;9.666;2024-02-15T14:35:57;-3.20;99.90
21580;DHT22;10951;59.656;9.666;2024-02-15T14:38:28;-3.20;99.90
21580;DHT22;10951;59.656;9.666;2024-02-15T14:40:56;-3.20;99.90
21580;DHT22;10951;59.656;9.666;2024-02-15T14:43:25;-3.20;99.90
21580;DHT22;10951;59.656;9.666;2024-02-15T14:45:54;-3.20;99.90
21580;DHT22;10951;59.656;9.666;2024-02-15T14:48:25;-3.20;99.90
21580;DHT22;10951;59.656;9.666;2024-02-15T14:50:53;-3.10;99.90
21580;DHT22;10951;59.656;9.666;2024-02-15T14:53:21;-3.20;99.90
21580;DHT22;10951;59.656;9.666;2024-02-15T14:55:49;-3.20;99.90
21580;DHT22;10951;59.656;9.666;2024-02-15T14:58:20;-3.20;99.90
21580;DHT22;10951;59.656;9.666;2024-02-15T15:00:48;-3.20;99.90
21580;DHT22;10951;59.656;9.666;2024-02-15T15:03:16;-3.20;99.90
21580;DHT22;10951;59.656;9.666;2024-02-15T15:05:44;-3.20;99.90
21580;DHT22;10951;59.656;9.666;2024-02-15T15:08:31;-3.20;99.90
21580;DHT22;10951;59.656;9.666;2024-02-15T15:11:17;-3.20;99.90
21580;DHT22;10951;59.656;9.666;2024-02-15T15:14:03;-3.30;99.90
21580;DHT22;10951;59.656;9.666;2024-02-15T15:16:31;-3.30;99.90
21580;DHT22;10951;59.656;9.666;2024-02-15T15:18:59;-3.40;99.90
21580;DHT22;10951;59.656;9.666;2024-02-15T15:21:26;-3.40;99.90
21580;DHT22;10951;59.656;9.666;2024-02-15T15:23:56;-3.40;99.90
21580;DHT22;10951;59.656;9.666;2024-02-15T15:26:24;-3.30;99.90
21580;DHT22;10951;59.656;9.666;2024-02-15T15:28:51;-3.40;99.90
21580;DHT22;10951;59.656;9.666;2024-02-15T15:31:18;-3.40;99.90
21580;DHT22;10951;59.656;9.666;2024-02-15T15:33:49;-3.40;99.90
21580;DHT22;10951;59.656;9.666;2024-02-15T15:36:17;-3.40;99.90
21580;DHT22;10951;59.656;9.666;2024-02-15T15:38:46;-3.40;99.90
21580;DHT22;10951;59.656;9.666;2024-02-15T15:41:14;-3.40;99.90
21580;DHT22;10951;59.656;9.666;2024-02-15T15:43:42;-3.40;99.90
21580;DHT22;10951;59.656;9.666;2024-02-15T15:46:16;-3.50;99.90
21580;DHT22;10951;59.656;9.666;2024-02-15T15:48:43;-3.50;99.90
21580;DHT22;10951;59.656;9.666;2024-02-15T15:51:11;-3.50;99.90
21580;DHT22;10951;59.656;9.666;2024-02-15T15:53:39;-3.50;99.90
21580;DHT22;10951;59.656;9.666;2024-02-15T15:56:07;-3.50;99.90
21580;DHT22;10951;59.656;9.666;2024-02-15T15:58:35;-3.60;99.90